首页
METAR-TAF:

METAR-TAF

机场 :

英迪拉·甘地国际机场

新德里, 印度

纬度: 28-34N, 经度: 077-07E, 海拔: 220米

当前天气观测

该预报发布于20分钟前的05:00 UTC
风速9节,风向西北
温度 25°C
湿度 50%
气压 1014 hPa
能見度: 2200

METAR: VIDP 290500Z 31009KT 2200 FU NSC 25/14 Q1014 NOSIG

时间: 10:50 (05:20 UTC)

预报

该预报发布于3小时和20分钟前的02:00 UTC
预报有效从29日的 03点(UTC)到 29日的 12点(UTC)
风速4节,风向西
能見度: 0600
浅雾
成为
从 29日的 04点(UTC)到 29日的 06点(UTC)
风速10节,风向西转西北
能見度: 2500
成为
从 29日的 08点(UTC)到 29日的 10点(UTC)
能見度: 4000

TAF: VIDP 290200Z 2903/2912 26004KT 0600 MIFG NSC BECMG 2904/2906 29010KT 2500 HZ BECMG 2908/2910 4000 HZ

超过4000个机场的气象观测和天气预报(METAR&TAF报告)。

可查询的气象台以黄色和红色小点在地图上表示。

将鼠标移到小点上方,可查看气象台名称。

然后点击查看天气观测和预报。

如需切换地图:点击带黑十字的绿色按钮放大地图;点击带横线的绿色按钮缩小地图;或者点击绿色箭头查看邻近地区的地图。


METAR-TAF: